Time;durP1;ratioP1;P1;durP2;ratioP2;P2;SDS_P1;SDS_P2;PMS_P1;PMS_P2;Temp;Humidity;BMP_temperature;BMP_pressure;BME280_temperature;BME280_humidity;BME280_pressure;Samples;Min_cycle;Max_cycle;Signal;HPM_P1;HPM_P2
2023/03/20 00:01:12;;;;;;;13.43;6.28;;;8.30;99.90;;;;;;5070461;28;20418;-76
2023/03/20 00:03:38;;;;;;;11.88;6.30;;;8.30;99.90;;;;;;5089903;28;20919;-76
2023/03/20 00:06:04;;;;;;;10.95;6.32;;;8.20;99.90;;;;;;5089224;28;20410;-76
2023/03/20 00:08:31;;;;;;;10.02;6.00;;;8.20;99.90;;;;;;5089787;28;20412;-77
2023/03/20 00:10:57;;;;;;;11.82;5.85;;;8.20;99.90;;;;;;5085968;28;20491;-76
2023/03/20 00:13:27;;;;;;;10.10;6.15;;;8.30;99.90;;;;;;5089737;28;20413;-77
2023/03/20 00:15:53;;;;;;;11.13;6.10;;;8.30;99.90;;;;;;5093933;28;20415;-76
2023/03/20 00:18:22;;;;;;;11.17;6.40;;;8.30;99.90;;;;;;5089403;28;20954;-77
2023/03/20 00:20:52;;;;;;;9.95;5.93;;;8.30;99.90;;;;;;5084581;28;20955;-77
2023/03/20 00:23:18;;;;;;;11.77;6.10;;;8.20;99.90;;;;;;5085389;28;20469;-77
2023/03/20 00:25:45;;;;;;;11.25;6.05;;;8.20;99.90;;;;;;5089166;28;20430;-77
2023/03/20 00:28:17;;;;;;;7.85;5.32;;;8.20;99.90;;;;;;5080282;28;20411;-77
2023/03/20 00:30:43;;;;;;;9.55;5.18;;;8.20;99.90;;;;;;5088442;28;20398;-77
2023/03/20 00:33:09;;;;;;;9.40;5.20;;;8.20;99.90;;;;;;5081123;28;20395;-77
2023/03/20 00:35:35;;;;;;;8.50;4.97;;;8.20;99.90;;;;;;5088928;28;20402;-77
2023/03/20 00:38:01;;;;;;;10.18;5.25;;;8.20;99.90;;;;;;5077306;28;20438;-77
2023/03/20 00:40:30;;;;;;;9.93;5.77;;;8.20;99.90;;;;;;5088647;28;20414;-77
2023/03/20 00:43:02;;;;;;;11.07;5.80;;;8.20;99.90;;;;;;5088570;28;20471;-77
2023/03/20 00:45:32;;;;;;;12.90;5.63;;;8.20;99.90;;;;;;5089041;28;20409;-77
2023/03/20 00:47:59;;;;;;;9.80;6.03;;;8.20;99.90;;;;;;5071615;28;20406;-77
2023/03/20 00:50:29;;;;;;;11.23;5.80;;;8.20;99.90;;;;;;5081089;28;21050;-77
2023/03/20 00:52:57;;;;;;;13.65;6.43;;;8.20;99.90;;;;;;5085580;28;20460;-77
2023/03/20 00:55:26;;;;;;;10.65;5.70;;;8.20;99.90;;;;;;5081407;28;20994;-77
2023/03/20 00:57:54;;;;;;;10.77;5.95;;;8.20;99.90;;;;;;5086028;28;20425;-77
2023/03/20 01:00:36;;;;;;;9.60;5.60;;;8.20;99.90;;;;;;5088507;28;20410;-77
2023/03/20 01:03:11;;;;;;;9.80;5.32;;;8.20;99.90;;;;;;5075452;28;20426;-77
2023/03/20 01:05:36;;;;;;;11.47;5.90;;;8.20;99.90;;;;;;5088453;28;20442;-77
2023/03/20 01:08:04;;;;;;;9.00;5.60;;;8.20;99.90;;;;;;5088361;28;20401;-77
2023/03/20 01:10:31;;;;;;;7.75;5.65;;;8.20;99.90;;;;;;5078138;28;20412;-77
2023/03/20 01:13:00;;;;;;;11.13;5.85;;;8.20;99.90;;;;;;5088302;28;20436;-77
2023/03/20 01:15:30;;;;;;;8.95;5.20;;;8.10;99.90;;;;;;5090909;28;20448;-77
2023/03/20 01:17:56;;;;;;;10.27;5.22;;;8.20;99.90;;;;;;5080115;28;20476;-77
2023/03/20 01:20:25;;;;;;;10.77;5.57;;;8.10;99.90;;;;;;5087874;28;20398;-78
2023/03/20 01:22:51;;;;;;;11.52;5.90;;;8.10;99.90;;;;;;5079081;28;20406;-77
2023/03/20 01:25:17;;;;;;;9.20;5.20;;;8.10;99.90;;;;;;5087696;28;20436;-77
2023/03/20 01:27:48;;;;;;;9.17;5.20;;;8.10;99.90;;;;;;5071587;28;20413;-77
2023/03/20 01:30:19;;;;;;;8.73;4.82;;;8.10;99.90;;;;;;5087373;28;20415;-77
2023/03/20 01:32:46;;;;;;;7.60;4.80;;;8.10;99.90;;;;;;5070912;28;20752;-77
2023/03/20 01:35:17;;;;;;;9.93;5.03;;;8.10;99.90;;;;;;5070325;28;20493;-76
2023/03/20 01:37:43;;;;;;;9.23;4.50;;;8.10;99.90;;;;;;5087736;28;20444;-77
2023/03/20 01:40:31;;;;;;;8.10;4.47;;;8.10;99.90;;;;;;5076115;28;20802;-77
2023/03/20 01:42:57;;;;;;;8.87;4.77;;;8.00;99.90;;;;;;5086627;28;20440;-77
2023/03/20 01:45:28;;;;;;;8.60;4.80;;;8.00;99.90;;;;;;5076240;28;20405;-77
2023/03/20 01:47:54;;;;;;;10.38;4.97;;;8.00;99.90;;;;;;5074510;28;20501;-77
2023/03/20 01:50:25;;;;;;;8.80;4.63;;;8.00;99.90;;;;;;5087404;28;20488;-77
2023/03/20 01:53:24;;;;;;;7.35;4.53;;;7.90;99.90;;;;;;5086969;28;20833;-77
2023/03/20 01:55:53;;;;;;;9.03;4.47;;;7.90;99.90;;;;;;5038432;28;20533;-77
2023/03/20 01:58:27;;;;;;;7.45;4.63;;;7.90;99.90;;;;;;5103609;28;20430;-77
2023/03/20 02:00:52;;;;;;;8.33;4.30;;;7.90;99.90;;;;;;5090355;28;20470;-77
2023/03/20 02:03:20;;;;;;;7.63;4.10;;;7.90;99.90;;;;;;5090479;28;20409;-77
2023/03/20 02:05:45;;;;;;;6.60;4.30;;;7.90;99.90;;;;;;5091015;28;20491;-77
2023/03/20 02:08:27;;;;;;;10.10;4.35;;;7.90;99.90;;;;;;5089986;28;20505;-77
2023/03/20 02:10:53;;;;;;;8.63;4.30;;;7.90;99.90;;;;;;5069410;28;20410;-77
2023/03/20 02:13:19;;;;;;;8.60;4.47;;;7.90;99.90;;;;;;5090492;28;20396;-78
2023/03/20 02:16:00;;;;;;;7.45;4.70;;;7.90;99.90;;;;;;5085482;28;20407;-77
2023/03/20 02:18:26;;;;;;;8.07;4.53;;;7.90;99.90;;;;;;5085148;28;20428;-77
2023/03/20 02:21:14;;;;;;;10.00;4.93;;;7.90;99.90;;;;;;5089027;28;21006;-77
2023/03/20 02:23:49;;;;;;;7.95;4.30;;;7.90;99.90;;;;;;5083218;28;20412;-77
2023/03/20 02:26:34;;;;;;;8.13;4.30;;;8.00;99.90;;;;;;5090676;28;20495;-77
2023/03/20 02:29:38;;;;;;;8.23;4.80;;;7.90;99.90;;;;;;5091301;28;20452;-77
2023/03/20 02:32:33;;;;;;;8.65;4.88;;;7.90;99.90;;;;;;5059070;28;20417;-77
2023/03/20 02:35:36;;;;;;;10.60;4.90;;;7.90;99.90;;;;;;5089907;28;20495;-77
2023/03/20 02:38:05;;;;;;;11.82;5.57;;;7.90;99.90;;;;;;5086357;28;20534;-77
2023/03/20 02:40:55;;;;;;;13.65;6.30;;;7.90;99.90;;;;;;5090565;28;20415;-77
2023/03/20 02:43:35;;;;;;;12.95;5.97;;;7.90;99.90;;;;;;5067755;28;20443;-77
2023/03/20 02:46:30;;;;;;;14.32;6.20;;;7.90;99.90;;;;;;5072966;28;20412;-77
2023/03/20 02:49:02;;;;;;;13.75;6.10;;;7.90;99.90;;;;;;5078210;28;20475;-77
2023/03/20 02:51:37;;;;;;;14.07;6.30;;;7.90;99.90;;;;;;5080891;28;20774;-77
2023/03/20 02:54:37;;;;;;;14.77;6.47;;;7.90;99.90;;;;;;5088680;28;20410;-77
2023/03/20 02:57:07;;;;;;;13.82;6.90;;;7.90;99.90;;;;;;5097998;28;20439;-77
2023/03/20 02:59:55;;;;;;;14.00;6.18;;;7.90;99.90;;;;;;5108587;28;20396;-76
2023/03/20 03:02:31;;;;;;;11.95;6.40;;;7.90;99.90;;;;;;5079674;28;20913;-77
2023/03/20 03:05:01;;;;;;;13.65;6.72;;;7.90;99.90;;;;;;5089994;28;20404;-77
2023/03/20 03:07:32;;;;;;;13.05;6.85;;;7.90;99.90;;;;;;5077725;28;20489;-76
2023/03/20 03:10:07;;;;;;;12.30;6.68;;;7.90;99.90;;;;;;5073893;28;20577;-77
2023/03/20 03:12:40;;;;;;;17.25;7.70;;;7.90;99.90;;;;;;5061704;28;20410;-77
2023/03/20 03:15:27;;;;;;;12.07;6.40;;;7.90;99.90;;;;;;5091781;28;20406;-77
2023/03/20 03:17:57;;;;;;;13.50;6.83;;;7.90;99.90;;;;;;5089600;28;20428;-76
2023/03/20 03:20:31;;;;;;;14.18;7.00;;;8.00;99.90;;;;;;5090311;28;20459;-77
2023/03/20 03:22:58;;;;;;;13.70;6.80;;;7.90;99.90;;;;;;5088762;28;20398;-77
2023/03/20 03:25:28;;;;;;;16.83;7.03;;;7.90;99.90;;;;;;5061942;28;20492;-77
2023/03/20 03:28:04;;;;;;;13.52;6.95;;;7.90;99.90;;;;;;5072199;28;20935;-77
2023/03/20 03:30:37;;;;;;;15.43;8.00;;;8.00;99.90;;;;;;5086310;28;20434;-77
2023/03/20 03:33:22;;;;;;;18.75;7.95;;;8.00;99.90;;;;;;5088917;28;20408;-76
2023/03/20 03:35:49;;;;;;;16.05;7.70;;;8.00;99.90;;;;;;5089483;28;20473;-77
2023/03/20 03:38:18;;;;;;;17.35;7.97;;;8.00;99.90;;;;;;5089697;28;20443;-77
2023/03/20 03:41:09;;;;;;;17.73;7.80;;;8.00;99.90;;;;;;5091449;28;20401;-77
2023/03/20 03:43:52;;;;;;;16.50;8.10;;;8.00;99.90;;;;;;5088992;28;20412;-77
2023/03/20 03:46:32;;;;;;;17.55;8.13;;;8.00;99.90;;;;;;5077894;28;20415;-77
2023/03/20 03:48:59;;;;;;;16.20;8.25;;;8.00;99.90;;;;;;5080729;28;20489;-77
2023/03/20 03:51:30;;;;;;;19.07;8.20;;;8.00;99.90;;;;;;5087275;28;20406;-77
2023/03/20 03:54:04;;;;;;;15.95;8.10;;;8.00;99.90;;;;;;5074106;28;20442;-77
2023/03/20 03:56:31;;;;;;;14.20;7.43;;;8.00;99.90;;;;;;5081699;28;20425;-77
2023/03/20 03:59:03;;;;;;;14.57;7.70;;;8.00;99.90;;;;;;5088865;28;20398;-76
2023/03/20 04:01:34;;;;;;;17.20;7.90;;;8.00;99.90;;;;;;5089669;28;20412;-77
2023/03/20 04:04:02;;;;;;;16.47;8.10;;;8.00;99.90;;;;;;5089674;28;20408;-77
2023/03/20 04:06:28;;;;;;;18.95;8.23;;;8.00;99.90;;;;;;5075784;28;20411;-77
2023/03/20 04:08:54;;;;;;;15.55;8.07;;;8.00;99.90;;;;;;5093389;28;20408;-77
2023/03/20 04:11:25;;;;;;;16.00;8.75;;;8.00;99.90;;;;;;5093038;28;20400;-77
2023/03/20 04:13:51;;;;;;;17.90;9.20;;;8.00;99.90;;;;;;5089536;28;20447;-77
2023/03/20 04:16:19;;;;;;;16.02;9.10;;;8.00;99.90;;;;;;5092529;28;20408;-77
2023/03/20 04:18:46;;;;;;;17.30;8.85;;;8.00;99.90;;;;;;5092917;28;20401;-77
2023/03/20 04:21:12;;;;;;;20.92;8.90;;;8.00;99.90;;;;;;5091703;28;20434;-77
2023/03/20 04:23:38;;;;;;;18.77;8.77;;;8.00;99.90;;;;;;5090401;28;20455;-77
2023/03/20 04:26:05;;;;;;;18.15;8.77;;;8.00;99.90;;;;;;5092043;28;20400;-77
2023/03/20 04:28:30;;;;;;;16.90;9.23;;;8.00;99.90;;;;;;5090459;28;20434;-77
2023/03/20 04:30:58;;;;;;;19.37;9.43;;;8.10;99.90;;;;;;5092767;28;20447;-76
2023/03/20 04:33:24;;;;;;;18.52;9.73;;;8.10;99.90;;;;;;5075895;28;20401;-77
2023/03/20 04:35:50;;;;;;;17.15;9.15;;;8.00;99.90;;;;;;5091911;28;20479;-77
2023/03/20 04:38:17;;;;;;;19.05;9.38;;;8.00;99.90;;;;;;5091724;28;20850;-77
2023/03/20 04:40:43;;;;;;;17.58;9.95;;;8.00;99.90;;;;;;5092929;27;20886;-76
2023/03/20 04:43:09;;;;;;;16.60;8.70;;;8.10;99.90;;;;;;5075357;28;20457;-77
2023/03/20 04:45:34;;;;;;;18.03;9.30;;;8.10;99.90;;;;;;5092650;28;20402;-77
2023/03/20 04:48:00;;;;;;;20.40;9.63;;;8.10;99.90;;;;;;5091458;28;20408;-77
2023/03/20 04:50:26;;;;;;;17.10;8.80;;;8.10;99.90;;;;;;5092846;27;20400;-77
2023/03/20 04:52:52;;;;;;;14.63;9.27;;;8.10;99.90;;;;;;5083900;28;20400;-77
2023/03/20 04:55:17;;;;;;;16.33;9.38;;;8.10;99.90;;;;;;5091659;28;20944;-77
2023/03/20 04:57:43;;;;;;;14.45;8.70;;;8.10;99.90;;;;;;5088478;28;20422;-77
2023/03/20 05:00:11;;;;;;;18.70;9.27;;;8.10;99.90;;;;;;5088458;28;20410;-77
2023/03/20 05:02:36;;;;;;;16.35;8.73;;;8.10;99.90;;;;;;5089385;28;20484;-77
2023/03/20 05:05:02;;;;;;;16.50;9.13;;;8.10;99.90;;;;;;5071168;28;20976;-77
2023/03/20 05:07:28;;;;;;;17.23;8.57;;;8.10;99.90;;;;;;5087696;28;20489;-77
2023/03/20 05:09:54;;;;;;;14.70;8.40;;;8.10;99.90;;;;;;5089010;28;20488;-77
2023/03/20 05:12:20;;;;;;;15.82;8.82;;;8.10;99.90;;;;;;5087714;28;20424;-77
2023/03/20 05:14:45;;;;;;;18.40;8.47;;;8.10;99.90;;;;;;5090178;28;20444;-77
2023/03/20 05:17:11;;;;;;;14.67;8.40;;;8.10;99.90;;;;;;5076625;28;20512;-77
2023/03/20 05:19:37;;;;;;;16.10;8.40;;;8.10;99.90;;;;;;5079597;28;20788;-77
2023/03/20 05:22:04;;;;;;;16.40;7.93;;;8.10;99.90;;;;;;5087918;28;20444;-77
2023/03/20 05:24:30;;;;;;;17.17;8.00;;;8.10;99.90;;;;;;5088883;28;20815;-77
2023/03/20 05:26:56;;;;;;;14.65;7.93;;;8.10;99.90;;;;;;5071102;28;20938;-77
2023/03/20 05:29:21;;;;;;;16.45;8.75;;;8.10;99.90;;;;;;5088062;28;20425;-77
2023/03/20 05:31:47;;;;;;;16.13;8.52;;;8.10;99.90;;;;;;5087747;28;20417;-77
2023/03/20 05:34:13;;;;;;;14.80;8.03;;;8.20;99.90;;;;;;5088061;28;20801;-77
2023/03/20 05:36:38;;;;;;;16.10;8.70;;;8.20;99.90;;;;;;5086864;28;20411;-77
2023/03/20 05:39:04;;;;;;;13.73;8.07;;;8.10;99.90;;;;;;5078996;28;20843;-77
2023/03/20 05:41:30;;;;;;;18.03;8.70;;;8.10;99.90;;;;;;5078613;28;20410;-77
2023/03/20 05:43:55;;;;;;;14.98;8.27;;;8.10;99.90;;;;;;5070600;28;20406;-77
2023/03/20 05:46:21;;;;;;;13.50;8.20;;;8.20;99.90;;;;;;5070424;28;20421;-77
2023/03/20 05:48:47;;;;;;;16.83;8.30;;;8.10;99.90;;;;;;5087784;28;20406;-78
2023/03/20 05:51:13;;;;;;;15.60;8.07;;;8.20;99.90;;;;;;5087752;28;20445;-77
2023/03/20 05:53:38;;;;;;;16.30;8.17;;;8.10;99.90;;;;;;5070603;28;20911;-77
2023/03/20 05:56:05;;;;;;;17.75;7.80;;;8.20;99.90;;;;;;5086616;28;20433;-77
2023/03/20 05:58:30;;;;;;;14.52;8.38;;;8.20;99.90;;;;;;5088510;28;20517;-77
2023/03/20 06:00:59;;;;;;;13.50;7.13;;;8.20;99.90;;;;;;5069658;28;21045;-77
2023/03/20 06:03:25;;;;;;;14.95;8.02;;;8.20;99.90;;;;;;5087069;28;20485;-77
2023/03/20 06:05:51;;;;;;;17.97;8.40;;;8.20;99.90;;;;;;5069878;28;20804;-77
2023/03/20 06:08:16;;;;;;;13.70;7.85;;;8.20;99.90;;;;;;5086768;28;20451;-77
2023/03/20 06:10:42;;;;;;;15.83;8.47;;;8.20;99.90;;;;;;5086450;28;20456;-77
2023/03/20 06:13:07;;;;;;;13.20;7.90;;;8.20;99.90;;;;;;5087997;28;20433;-77
2023/03/20 06:15:33;;;;;;;14.20;8.40;;;8.20;99.90;;;;;;5086345;28;20409;-77
2023/03/20 06:17:59;;;;;;;14.73;8.23;;;8.20;99.90;;;;;;5089166;28;20506;-78
2023/03/20 06:20:25;;;;;;;13.88;7.65;;;8.20;99.90;;;;;;5069160;28;20406;-77
2023/03/20 06:22:51;;;;;;;16.52;8.32;;;8.20;99.90;;;;;;5088959;28;20401;-78
2023/03/20 06:25:17;;;;;;;13.10;7.90;;;8.20;99.90;;;;;;5086288;28;20398;-77
2023/03/20 06:27:44;;;;;;;15.57;7.83;;;8.20;99.90;;;;;;5071087;28;20920;-77
2023/03/20 06:30:10;;;;;;;14.07;7.03;;;8.20;99.90;;;;;;5086918;28;20406;-78
2023/03/20 06:32:36;;;;;;;12.27;7.43;;;8.20;99.90;;;;;;5088131;28;20405;-77
2023/03/20 06:35:04;;;;;;;12.90;7.23;;;8.20;99.90;;;;;;5085947;28;20402;-77
2023/03/20 06:37:29;;;;;;;13.57;7.07;;;8.20;99.90;;;;;;5088080;28;20434;-77
2023/03/20 06:39:55;;;;;;;13.18;6.90;;;8.30;99.90;;;;;;5086664;28;20418;-77
2023/03/20 06:42:21;;;;;;;12.70;7.03;;;8.30;99.90;;;;;;5075981;28;20982;-77
2023/03/20 06:44:46;;;;;;;12.43;7.70;;;8.20;99.90;;;;;;5086734;28;20485;-77
2023/03/20 06:47:12;;;;;;;13.20;6.80;;;8.20;99.90;;;;;;5086228;28;20607;-77
2023/03/20 06:49:37;;;;;;;12.93;7.32;;;8.30;99.90;;;;;;5086424;28;20978;-77
2023/03/20 06:52:03;;;;;;;13.23;7.27;;;8.30;99.90;;;;;;5069278;28;20747;-77
2023/03/20 06:54:29;;;;;;;12.00;6.93;;;8.30;99.90;;;;;;5082695;28;20400;-77
2023/03/20 06:56:55;;;;;;;14.88;7.40;;;8.30;99.90;;;;;;5083762;28;20432;-77
2023/03/20 06:59:20;;;;;;;13.97;7.53;;;8.30;99.90;;;;;;5089291;28;20405;-77
2023/03/20 07:01:46;;;;;;;12.63;7.57;;;8.30;99.90;;;;;;5091617;28;20396;-77
2023/03/20 07:04:12;;;;;;;12.40;7.47;;;8.30;99.90;;;;;;5079906;28;20772;-77
2023/03/20 07:06:37;;;;;;;12.67;7.57;;;8.30;99.90;;;;;;5082607;28;20835;-77
2023/03/20 07:09:04;;;;;;;14.30;7.85;;;8.30;99.90;;;;;;5071335;28;20494;-77
2023/03/20 07:11:30;;;;;;;12.38;7.55;;;8.30;99.90;;;;;;5085052;28;20442;-78
2023/03/20 07:13:56;;;;;;;12.75;7.57;;;8.30;99.90;;;;;;5088261;28;20455;-77
2023/03/20 07:16:22;;;;;;;13.95;7.97;;;8.40;99.90;;;;;;5087653;28;20427;-77
2023/03/20 07:18:47;;;;;;;13.63;8.15;;;8.40;99.90;;;;;;5087203;28;20426;-77
2023/03/20 07:21:18;;;;;;;12.77;7.60;;;8.40;99.90;;;;;;5089607;28;20842;-77
2023/03/20 07:23:43;;;;;;;16.92;8.00;;;8.40;99.90;;;;;;5088653;28;20408;-77
2023/03/20 07:26:09;;;;;;;14.03;7.90;;;8.40;99.90;;;;;;5089397;28;20403;-77
2023/03/20 07:28:35;;;;;;;14.68;8.70;;;8.50;99.90;;;;;;5089220;28;20503;-77
2023/03/20 07:31:00;;;;;;;14.63;8.95;;;8.50;99.90;;;;;;5090221;28;20939;-78
2023/03/20 07:33:26;;;;;;;13.53;7.77;;;8.60;99.90;;;;;;5072879;28;20410;-78
2023/03/20 07:35:53;;;;;;;14.73;8.35;;;8.60;99.90;;;;;;5083929;28;20490;-77
2023/03/20 07:38:20;;;;;;;14.18;8.07;;;8.70;99.90;;;;;;5089266;28;20438;-77
2023/03/20 07:40:47;;;;;;;14.77;7.78;;;8.70;99.90;;;;;;5092856;28;20479;-77
2023/03/20 07:43:14;;;;;;;15.57;8.23;;;8.70;99.90;;;;;;5093350;28;20773;-77
2023/03/20 07:45:40;;;;;;;14.30;7.85;;;8.80;99.90;;;;;;5090346;28;20411;-77
2023/03/20 07:48:05;;;;;;;14.63;8.55;;;8.80;99.90;;;;;;5092939;28;20412;-77
2023/03/20 07:50:31;;;;;;;13.48;8.25;;;8.90;99.90;;;;;;5093888;27;20396;-77
2023/03/20 07:52:57;;;;;;;15.83;8.30;;;8.90;99.90;;;;;;5093675;28;20404;-77
2023/03/20 07:55:22;;;;;;;14.13;8.15;;;8.90;99.90;;;;;;5094253;28;20745;-77
2023/03/20 07:57:48;;;;;;;17.27;8.93;;;8.90;99.90;;;;;;5089134;28;20437;-77
2023/03/20 08:00:15;;;;;;;14.97;8.33;;;9.00;99.90;;;;;;5088867;28;20406;-76
2023/03/20 08:02:41;;;;;;;13.30;8.20;;;9.00;99.90;;;;;;5074420;28;20411;-77
2023/03/20 08:05:08;;;;;;;13.32;8.30;;;9.00;99.90;;;;;;5084188;28;20405;-77
2023/03/20 08:07:34;;;;;;;16.13;8.47;;;9.10;99.90;;;;;;5089728;28;20406;-78
2023/03/20 08:10:00;;;;;;;13.43;8.15;;;9.10;99.90;;;;;;5086965;28;20926;-78
2023/03/20 08:12:26;;;;;;;12.20;8.38;;;9.20;99.90;;;;;;5071419;28;20402;-77
2023/03/20 08:14:52;;;;;;;15.70;8.40;;;9.30;99.90;;;;;;5089275;28;20449;-77
2023/03/20 08:17:18;;;;;;;14.27;8.10;;;9.30;99.90;;;;;;5088254;28;20430;-78
2023/03/20 08:19:44;;;;;;;13.85;8.32;;;9.40;99.90;;;;;;5090222;28;20405;-77
2023/03/20 08:22:09;;;;;;;15.65;9.05;;;9.50;99.90;;;;;;5088073;28;20798;-77
2023/03/20 08:24:35;;;;;;;13.73;8.57;;;9.50;99.90;;;;;;5064779;28;20403;-78
2023/03/20 08:27:01;;;;;;;12.87;8.00;;;9.50;99.90;;;;;;5090244;28;20429;-78
2023/03/20 08:29:27;;;;;;;13.52;8.40;;;9.50;99.90;;;;;;5089239;28;20911;-78
2023/03/20 08:31:52;;;;;;;14.43;8.65;;;9.60;99.90;;;;;;5071255;28;20406;-77
2023/03/20 08:34:18;;;;;;;13.87;8.33;;;9.60;99.90;;;;;;5093032;28;20743;-78
2023/03/20 08:36:44;;;;;;;15.35;8.18;;;9.60;99.90;;;;;;5088159;28;20955;-78
2023/03/20 08:39:10;;;;;;;14.23;8.70;;;9.60;99.90;;;;;;5089108;28;20525;-77
2023/03/20 08:41:40;;;;;;;16.27;8.18;;;9.60;99.90;;;;;;5072366;28;20895;-77
2023/03/20 08:44:06;;;;;;;14.60;9.00;;;9.60;99.90;;;;;;5080171;28;21058;-78
2023/03/20 08:46:32;;;;;;;16.52;8.57;;;9.60;99.90;;;;;;5091075;28;20398;-78
2023/03/20 08:48:59;;;;;;;17.27;8.80;;;9.60;99.90;;;;;;5080860;28;20471;-77
2023/03/20 08:51:26;;;;;;;16.08;9.20;;;9.60;99.90;;;;;;5077969;28;20491;-77
2023/03/20 08:53:52;;;;;;;13.13;8.48;;;9.60;99.90;;;;;;5088872;28;20398;-78
2023/03/20 08:56:17;;;;;;;16.60;8.98;;;9.60;99.90;;;;;;5089855;28;20802;-77
2023/03/20 08:58:43;;;;;;;14.13;8.40;;;9.60;99.90;;;;;;5088760;28;20430;-78
2023/03/20 09:01:10;;;;;;;12.82;8.40;;;9.60;99.90;;;;;;5081731;28;20412;-77
2023/03/20 09:03:36;;;;;;;15.20;8.40;;;9.70;99.90;;;;;;5068237;28;20976;-78
2023/03/20 09:06:05;;;;;;;14.45;8.38;;;9.70;99.90;;;;;;5090449;28;21223;-77
2023/03/20 09:08:31;;;;;;;12.50;8.00;;;9.70;99.90;;;;;;5081707;28;20422;-78
2023/03/20 09:10:57;;;;;;;15.45;8.82;;;9.80;99.90;;;;;;5072064;28;20911;-78
2023/03/20 09:13:24;;;;;;;16.07;8.87;;;9.80;99.90;;;;;;5090382;28;20912;-78
2023/03/20 09:15:50;;;;;;;14.23;8.10;;;9.90;99.90;;;;;;5082922;28;20962;-78
2023/03/20 09:18:16;;;;;;;15.82;8.75;;;10.00;99.90;;;;;;5086604;28;20434;-77
2023/03/20 09:20:41;;;;;;;13.75;8.00;;;10.00;99.90;;;;;;5088480;28;20410;-78
2023/03/20 09:23:07;;;;;;;16.13;9.20;;;10.00;99.90;;;;;;5089972;28;20441;-78
2023/03/20 09:25:33;;;;;;;15.43;8.80;;;10.00;99.90;;;;;;5088441;28;20398;-78
2023/03/20 09:27:58;;;;;;;13.50;8.23;;;10.10;99.90;;;;;;5088002;28;20835;-78
2023/03/20 09:30:24;;;;;;;16.08;8.32;;;10.20;99.90;;;;;;5088404;28;20390;-78
2023/03/20 09:32:51;;;;;;;17.05;8.93;;;10.30;99.90;;;;;;5085513;28;20974;-78
2023/03/20 09:35:17;;;;;;;15.88;8.30;;;10.40;99.90;;;;;;5083987;28;20762;-78
2023/03/20 09:37:43;;;;;;;15.57;8.73;;;10.30;99.90;;;;;;5067350;28;21004;-77
2023/03/20 09:40:25;;;;;;;13.03;7.93;;;10.30;99.90;;;;;;5087236;28;20414;-77
2023/03/20 09:43:22;;;;;;;15.23;8.83;;;10.30;99.90;;;;;;5087426;28;20902;-78
2023/03/20 09:46:01;;;;;;;16.75;9.02;;;10.40;99.90;;;;;;5020145;28;20498;-78
2023/03/20 09:48:44;;;;;;;16.38;7.93;;;10.50;99.90;;;;;;5088251;28;20835;-78
2023/03/20 09:51:17;;;;;;;13.07;7.93;;;10.60;99.90;;;;;;5067142;28;20473;-78
2023/03/20 09:53:51;;;;;;;16.60;7.70;;;10.60;99.90;;;;;;5086998;28;20406;-78
2023/03/20 09:56:23;;;;;;;13.80;7.50;;;10.60;99.90;;;;;;5081831;28;20418;-78
2023/03/20 09:58:55;;;;;;;12.13;7.35;;;10.50;99.90;;;;;;5103559;28;20913;-77
2023/03/20 10:01:29;;;;;;;14.88;7.68;;;10.50;99.90;;;;;;5081288;28;20408;-78
2023/03/20 10:04:00;;;;;;;13.75;7.22;;;10.50;99.90;;;;;;5073210;28;20803;-77
2023/03/20 10:06:26;;;;;;;16.42;7.75;;;10.50;99.90;;;;;;5086597;28;20501;-76
2023/03/20 10:08:52;;;;;;;14.57;7.15;;;10.60;99.90;;;;;;5090431;28;20522;-78
2023/03/20 10:11:29;;;;;;;13.57;7.15;;;10.70;99.90;;;;;;5090385;28;20624;-78
2023/03/20 10:14:23;;;;;;;15.20;6.35;;;10.70;99.90;;;;;;5086881;28;20511;-77
2023/03/20 10:17:16;;;;;;;15.90;6.78;;;10.90;99.90;;;;;;5086246;28;20418;-78
2023/03/20 10:19:49;;;;;;;13.15;6.45;;;11.10;99.90;;;;;;5086448;28;20413;-78
2023/03/20 10:22:34;;;;;;;12.80;6.70;;;11.20;99.90;;;;;;5086099;28;20569;-78
2023/03/20 10:25:32;;;;;;;13.10;6.93;;;11.20;99.90;;;;;;5089393;28;20419;-78
2023/03/20 10:28:02;;;;;;;12.37;6.80;;;11.30;99.90;;;;;;5091392;28;20411;-78
2023/03/20 10:30:55;;;;;;;14.13;7.13;;;11.30;99.90;;;;;;5073448;28;20487;-78
2023/03/20 10:33:39;;;;;;;13.43;6.88;;;11.30;99.90;;;;;;5053882;27;20402;-78
2023/03/20 10:36:23;;;;;;;12.93;6.93;;;11.40;99.90;;;;;;5092010;27;20457;-77
2023/03/20 10:39:13;;;;;;;14.23;7.00;;;11.40;99.90;;;;;;5089950;28;20507;-77
2023/03/20 10:41:43;;;;;;;13.52;6.85;;;11.40;99.90;;;;;;5090465;28;20412;-77
2023/03/20 10:44:39;;;;;;;12.77;6.57;;;11.40;99.90;;;;;;5089893;28;20953;-77
2023/03/20 10:47:09;;;;;;;15.77;8.18;;;11.40;99.90;;;;;;5090066;28;20524;-77
2023/03/20 10:49:37;;;;;;;14.40;7.35;;;11.40;99.90;;;;;;5090362;28;20463;-76
2023/03/20 10:52:09;;;;;;;13.88;7.40;;;11.30;99.90;;;;;;5086662;28;20406;-77
2023/03/20 10:54:40;;;;;;;14.90;8.07;;;11.40;99.90;;;;;;5090877;28;20762;-78
2023/03/20 10:57:31;;;;;;;17.38;7.32;;;11.40;99.90;;;;;;5091528;27;20496;-78
2023/03/20 10:59:58;;;;;;;14.13;7.60;;;11.40;99.90;;;;;;5082382;28;20467;-78
2023/03/20 11:02:28;;;;;;;11.77;7.07;;;11.30;99.90;;;;;;5109210;28;20487;-78
2023/03/20 11:04:54;;;;;;;14.07;7.50;;;11.30;99.90;;;;;;5085423;28;20393;-78
2023/03/20 11:07:27;;;;;;;12.68;7.30;;;11.40;99.90;;;;;;5090747;28;20400;-78
2023/03/20 11:10:05;;;;;;;16.73;7.63;;;11.40;99.90;;;;;;5089743;28;20840;-78
2023/03/20 11:12:33;;;;;;;13.15;6.95;;;11.30;99.90;;;;;;5079413;28;20412;-77
2023/03/20 11:15:13;;;;;;;15.43;7.22;;;11.30;99.90;;;;;;5094626;27;20409;-77
2023/03/20 11:17:38;;;;;;;14.55;7.80;;;11.20;99.90;;;;;;5094093;28;20836;-78
2023/03/20 11:20:05;;;;;;;12.60;7.45;;;11.20;99.90;;;;;;5093380;28;20423;-78
2023/03/20 11:22:31;;;;;;;14.13;7.60;;;11.30;99.90;;;;;;5095270;28;20443;-77
2023/03/20 11:25:02;;;;;;;14.50;7.45;;;11.40;99.90;;;;;;5093573;28;20431;-78
2023/03/20 11:27:33;;;;;;;14.13;7.10;;;11.40;99.90;;;;;;5095223;28;20396;-78
2023/03/20 11:30:04;;;;;;;12.45;6.55;;;11.40;99.90;;;;;;5074977;28;20412;-78
2023/03/20 11:32:39;;;;;;;15.07;7.28;;;11.40;99.90;;;;;;5113869;27;20396;-78
2023/03/20 11:35:24;;;;;;;14.10;6.70;;;11.50;99.90;;;;;;5090250;28;20872;-78
2023/03/20 11:37:52;;;;;;;13.82;6.90;;;11.40;99.90;;;;;;5093951;28;20491;-77
2023/03/20 11:40:31;;;;;;;15.90;6.80;;;11.30;99.90;;;;;;5091780;28;20411;-78
2023/03/20 11:43:09;;;;;;;12.95;5.97;;;11.30;99.90;;;;;;5092360;28;20410;-78
2023/03/20 11:45:38;;;;;;;11.68;5.65;;;11.40;99.90;;;;;;5087253;28;20437;-78
2023/03/20 11:48:05;;;;;;;11.63;5.88;;;11.30;99.90;;;;;;5113243;27;20404;-78
2023/03/20 11:50:37;;;;;;;12.82;5.88;;;11.20;99.90;;;;;;5093642;28;20400;-78
2023/03/20 11:53:23;;;;;;;11.52;5.55;;;11.10;99.90;;;;;;5081794;28;20543;-78
2023/03/20 11:56:10;;;;;;;15.13;5.88;;;11.10;99.90;;;;;;5080673;27;20926;-78
2023/03/20 11:58:55;;;;;;;11.98;6.18;;;10.90;99.90;;;;;;5093193;28;20479;-77
2023/03/20 12:01:21;;;;;;;11.85;5.78;;;10.90;99.90;;;;;;5061339;28;20417;-78
2023/03/20 12:04:04;;;;;;;12.73;5.50;;;10.70;99.90;;;;;;5103116;28;20463;-78
2023/03/20 12:06:46;;;;;;;13.75;5.97;;;10.70;99.90;;;;;;5093470;28;20945;-78
2023/03/20 12:09:40;;;;;;;12.43;6.25;;;10.60;99.90;;;;;;5086423;28;20417;-78
2023/03/20 12:12:30;;;;;;;12.70;5.90;;;10.50;99.90;;;;;;5091575;28;20547;-78
2023/03/20 12:15:11;;;;;;;12.45;6.50;;;10.40;99.90;;;;;;5095907;27;20435;-77
2023/03/20 12:18:04;;;;;;;13.15;7.10;;;10.50;99.90;;;;;;5080527;28;21170;-78
2023/03/20 12:20:49;;;;;;;13.18;6.70;;;10.40;99.90;;;;;;5086770;28;20819;-78
2023/03/20 12:23:41;;;;;;;15.55;6.40;;;10.40;99.90;;;;;;5106675;28;20469;-78
2023/03/20 12:26:23;;;;;;;13.27;6.93;;;10.40;99.90;;;;;;5091896;28;20804;-78
2023/03/20 12:29:09;;;;;;;15.20;6.70;;;10.40;99.90;;;;;;5092950;28;20408;-78
2023/03/20 12:31:42;;;;;;;11.15;5.85;;;10.40;99.90;;;;;;5092252;28;20914;-78
2023/03/20 12:34:13;;;;;;;12.35;5.25;;;10.40;99.90;;;;;;5092759;27;20405;-78
2023/03/20 12:36:45;;;;;;;14.60;4.47;;;10.40;99.90;;;;;;5082861;28;20415;-78
2023/03/20 12:39:22;;;;;;;10.07;4.40;;;10.40;99.90;;;;;;5092271;28;20421;-78
2023/03/20 12:42:08;;;;;;;9.70;4.97;;;10.50;99.90;;;;;;5075481;28;20431;-78
2023/03/20 12:44:51;;;;;;;11.68;4.78;;;10.40;99.90;;;;;;5075708;28;20774;-78
2023/03/20 12:47:49;;;;;;;11.65;5.07;;;10.40;99.90;;;;;;5093310;27;20914;-78
2023/03/20 12:50:27;;;;;;;8.07;4.00;;;10.30;99.90;;;;;;5084704;28;20408;-78
2023/03/20 12:53:02;;;;;;;10.40;4.60;;;10.20;99.90;;;;;;5074192;28;20467;-78
2023/03/20 12:55:36;;;;;;;8.73;3.90;;;10.20;99.90;;;;;;5091583;28;20405;-77
2023/03/20 12:58:40;;;;;;;9.67;3.83;;;10.10;99.90;;;;;;5081189;28;20430;-78
2023/03/20 13:01:16;;;;;;;8.13;4.20;;;10.10;99.90;;;;;;5036275;28;20408;-78
2023/03/20 13:04:19;;;;;;;12.05;4.60;;;10.00;99.90;;;;;;5094579;27;20531;-78
2023/03/20 13:06:53;;;;;;;9.00;4.85;;;10.00;99.90;;;;;;5091678;28;20404;-78